Time,TemperatureF,DewpointF,PressureIn,WindDirection,WindDirectionDegrees,WindSpeedMPH,WindSpeedGustMPH,Humidity,HourlyPrecipIn,Conditions,Clouds,dailyrainin,SoftwareType,DateUTC
2013-10-18 00:08:00,78.4,73.0,29.95,NNE,12,0.0,4.0,82,0.00,,,0.00,weatherlink.com 1.10,2013-10-18 04:08:00,
2013-10-18 00:23:00,78.4,73.0,29.94,North,10,0.0,2.0,82,0.00,,,0.00,weatherlink.com 1.10,2013-10-18 04:23:00,
2013-10-18 00:38:00,78.3,72.0,29.94,North,10,1.0,3.0,82,0.00,,,0.00,weatherlink.com 1.10,2013-10-18 04:38:00,
2013-10-18 00:53:00,78.0,72.0,29.93,NNE,12,0.0,3.0,82,0.00,,,0.00,weatherlink.com 1.10,2013-10-18 04:53:00,
2013-10-18 01:08:00,77.7,72.0,29.93,NNE,12,0.0,1.0,83,0.00,,,0.00,weatherlink.com 1.10,2013-10-18 05:08:00,
2013-10-18 01:23:00,77.4,72.0,29.93,NNE,12,0.0,0.0,83,0.00,,,0.00,weatherlink.com 1.10,2013-10-18 05:23:00,
2013-10-18 01:38:00,77.0,72.0,29.92,NNE,12,0.0,0.0,84,0.00,,,0.00,weatherlink.com 1.10,2013-10-18 05:38:00,
2013-10-18 01:53:00,76.5,71.0,29.92,NNE,12,0.0,3.0,84,0.00,,,0.00,weatherlink.com 1.10,2013-10-18 05:53:00,
2013-10-18 02:08:00,76.2,71.0,29.92,NNE,12,0.0,3.0,85,0.00,,,0.00,weatherlink.com 1.10,2013-10-18 06:08:00,
2013-10-18 02:23:00,76.1,72.0,29.92,NNE,12,1.0,5.0,86,0.00,,,0.00,weatherlink.com 1.10,2013-10-18 06:23:00,
2013-10-18 02:38:00,76.2,72.0,29.92,NNE,13,1.0,3.0,86,0.00,,,0.00,weatherlink.com 1.10,2013-10-18 06:38:00,
2013-10-18 02:53:00,75.9,72.0,29.92,NNE,13,1.0,2.0,87,0.00,,,0.00,weatherlink.com 1.10,2013-10-18 06:53:00,
2013-10-18 03:08:00,75.6,72.0,29.91,NNE,13,0.0,3.0,87,0.00,,,0.00,weatherlink.com 1.10,2013-10-18 07:08:00,
2013-10-18 03:23:00,75.3,71.0,29.91,NNE,13,0.0,4.0,87,0.00,,,0.00,weatherlink.com 1.10,2013-10-18 07:23:00,
2013-10-18 03:38:00,75.2,71.0,29.91,NNE,13,0.0,4.0,87,0.00,,,0.00,weatherlink.com 1.10,2013-10-18 07:38:00,
2013-10-18 03:53:00,75.1,71.0,29.91,NNE,13,0.0,0.0,87,0.00,,,0.00,weatherlink.com 1.10,2013-10-18 07:53:00,
2013-10-18 04:08:00,74.8,71.0,29.91,NNE,13,1.0,2.0,87,0.00,,,0.00,weatherlink.com 1.10,2013-10-18 08:08:00,
2013-10-18 04:23:00,74.5,71.0,29.91,NNE,13,3.0,4.0,88,0.00,,,0.00,weatherlink.com 1.10,2013-10-18 08:23:00,
2013-10-18 04:38:00,74.3,71.0,29.91,NNE,13,2.0,3.0,88,0.00,,,0.00,weatherlink.com 1.10,2013-10-18 08:38:00,
2013-10-18 04:53:00,74.1,71.0,29.91,NNE,13,0.0,2.0,89,0.00,,,0.00,weatherlink.com 1.10,2013-10-18 08:53:00,
2013-10-18 05:08:00,73.9,71.0,29.91,NNE,13,0.0,2.0,89,0.00,,,0.00,weatherlink.com 1.10,2013-10-18 09:08:00,
2013-10-18 05:23:00,73.7,70.0,29.92,NNE,13,1.0,2.0,89,0.00,,,0.00,weatherlink.com 1.10,2013-10-18 09:23:00,
2013-10-18 05:38:00,73.7,71.0,29.92,NNE,13,1.0,2.0,90,0.00,,,0.00,weatherlink.com 1.10,2013-10-18 09:38:00,
2013-10-18 05:53:00,73.6,71.0,29.93,NNE,13,0.0,3.0,90,0.00,,,0.00,weatherlink.com 1.10,2013-10-18 09:53:00,
2013-10-18 06:08:00,73.5,71.0,29.93,NNE,13,1.0,3.0,91,0.00,,,0.00,weatherlink.com 1.10,2013-10-18 10:08:00,
2013-10-18 06:23:00,73.5,71.0,29.93,NNE,13,0.0,3.0,91,0.00,,,0.00,weatherlink.com 1.10,2013-10-18 10:23:00,
2013-10-18 06:38:00,73.3,71.0,29.93,NNE,13,0.0,2.0,91,0.00,,,0.00,weatherlink.com 1.10,2013-10-18 10:38:00,
2013-10-18 06:53:00,73.4,71.0,29.94,NNE,13,0.0,0.0,91,0.00,,,0.00,weatherlink.com 1.10,2013-10-18 10:53:00,
2013-10-18 07:08:00,73.4,71.0,29.94,NNE,13,2.0,3.0,91,0.00,,,0.00,weatherlink.com 1.10,2013-10-18 11:08:00,
2013-10-18 07:23:00,73.2,71.0,29.95,NNE,13,2.0,3.0,91,0.00,,,0.00,weatherlink.com 1.10,2013-10-18 11:23:00,
2013-10-18 07:38:00,73.0,70.0,29.95,NNE,13,0.0,3.0,91,0.00,,,0.00,weatherlink.com 1.10,2013-10-18 11:38:00,
2013-10-18 07:53:00,73.2,71.0,29.95,NE,35,1.0,3.0,92,0.00,,,0.00,weatherlink.com 1.10,2013-10-18 11:53:00,
2013-10-18 08:09:00,73.6,72.0,29.96,NE,37,1.0,2.0,93,0.00,,,0.00,weatherlink.com 1.10,2013-10-18 12:09:00,
2013-10-18 08:24:00,74.4,72.0,29.96,NE,38,3.0,4.0,93,0.00,,,0.00,weatherlink.com 1.10,2013-10-18 12:24:00,
2013-10-18 08:39:00,75.4,73.0,29.97,NE,38,0.0,2.0,92,0.00,,,0.00,weatherlink.com 1.10,2013-10-18 12:39:00,
2013-10-18 08:54:00,76.2,74.0,29.97,NE,51,0.0,4.0,92,0.00,,,0.00,weatherlink.com 1.10,2013-10-18 12:54:00,
2013-10-18 09:09:00,77.3,74.0,29.98,East,82,3.0,7.0,90,0.00,,,0.00,weatherlink.com 1.10,2013-10-18 13:09:00,
2013-10-18 09:24:00,78.4,75.0,29.98,ENE,66,6.0,7.0,88,0.00,,,0.00,weatherlink.com 1.10,2013-10-18 13:24:00,
2013-10-18 09:39:00,79.4,75.0,29.98,NE,56,4.0,7.0,86,0.00,,,0.00,weatherlink.com 1.10,2013-10-18 13:39:00,
2013-10-18 09:54:00,80.5,75.0,29.98,ENE,57,5.0,7.0,83,0.00,,,0.00,weatherlink.com 1.10,2013-10-18 13:54:00,
2013-10-18 10:09:00,81.6,75.0,29.98,East,97,4.0,9.0,80,0.00,,,0.00,weatherlink.com 1.10,2013-10-18 14:09:00,
2013-10-18 10:24:00,82.6,76.0,29.98,East,79,5.0,9.0,79,0.00,,,0.00,weatherlink.com 1.10,2013-10-18 14:24:00,
2013-10-18 10:39:00,83.8,76.0,29.99,East,79,6.0,7.0,77,0.00,,,0.00,weatherlink.com 1.10,2013-10-18 14:39:00,
2013-10-18 10:54:00,84.5,74.0,29.99,SE,136,5.0,9.0,71,0.00,,,0.00,weatherlink.com 1.10,2013-10-18 14:54:00,
2013-10-18 11:09:00,85.7,75.0,29.99,SE,129,3.0,5.0,71,0.00,,,0.00,weatherlink.com 1.10,2013-10-18 15:09:00,
2013-10-18 11:24:00,86.2,76.0,29.98,SE,126,3.0,6.0,71,0.00,,,0.00,weatherlink.com 1.10,2013-10-18 15:24:00,
2013-10-18 11:39:00,87.2,75.0,29.98,East,82,0.0,7.0,68,0.00,,,0.00,weatherlink.com 1.10,2013-10-18 15:39:00,
2013-10-18 11:54:00,88.5,75.0,29.98,NE,47,2.0,9.0,65,0.00,,,0.00,weatherlink.com 1.10,2013-10-18 15:54:00,
2013-10-18 12:09:00,89.3,75.0,29.97,NE,54,2.0,6.0,63,0.00,,,0.00,weatherlink.com 1.10,2013-10-18 16:09:00,
2013-10-18 12:24:00,90.9,76.0,29.96,NNE,29,6.0,7.0,61,0.00,,,0.00,weatherlink.com 1.10,2013-10-18 16:24:00,
2013-10-18 12:39:00,91.7,75.0,29.96,ENE,58,2.0,9.0,58,0.00,,,0.00,weatherlink.com 1.10,2013-10-18 16:39:00,
2013-10-18 12:54:00,91.3,74.0,29.95,ESE,109,2.0,6.0,57,0.00,,,0.00,weatherlink.com 1.10,2013-10-18 16:54:00,
2013-10-18 13:09:00,90.6,75.0,29.95,WNW,294,4.0,7.0,61,0.00,,,0.00,weatherlink.com 1.10,2013-10-18 17:09:00,
2013-10-18 13:24:00,87.4,75.0,29.94,West,268,10.0,11.0,67,0.00,,,0.00,weatherlink.com 1.10,2013-10-18 17:24:00,
2013-10-18 13:39:00,86.5,75.0,29.94,WSW,256,5.0,10.0,69,0.00,,,0.00,weatherlink.com 1.10,2013-10-18 17:39:00,
2013-10-18 13:54:00,86.4,76.0,29.93,SW,216,5.0,11.0,70,0.00,,,0.00,weatherlink.com 1.10,2013-10-18 17:54:00,
2013-10-18 14:09:00,86.3,75.0,29.92,SW,229,3.0,9.0,70,0.00,,,0.00,weatherlink.com 1.10,2013-10-18 18:09:00,
2013-10-18 14:24:00,85.9,76.0,29.91,West,266,6.0,13.0,71,0.00,,,0.00,weatherlink.com 1.10,2013-10-18 18:24:00,
2013-10-18 14:41:00,85.5,75.0,29.91,West,270,9.0,15.0,71,0.00,,,0.00,weatherlink.com 1.10,2013-10-18 18:41:00,
2013-10-18 14:55:00,85.7,75.0,29.91,SW,228,3.0,15.0,70,0.00,,,0.00,weatherlink.com 1.10,2013-10-18 18:55:00,
2013-10-18 15:10:00,85.8,75.0,29.91,SW,222,6.0,15.0,70,0.00,,,0.00,weatherlink.com 1.10,2013-10-18 19:10:00,
2013-10-18 15:25:00,86.0,76.0,29.91,WSW,243,7.0,11.0,71,0.00,,,0.00,weatherlink.com 1.10,2013-10-18 19:25:00,
2013-10-18 15:40:00,86.1,76.0,29.90,SSW,202,5.0,10.0,72,0.00,,,0.00,weatherlink.com 1.10,2013-10-18 19:40:00,
2013-10-18 15:55:00,86.3,75.0,29.90,WSW,258,8.0,10.0,70,0.00,,,0.00,weatherlink.com 1.10,2013-10-18 19:55:00,
2013-10-18 16:10:00,86.1,75.0,29.90,West,265,6.0,13.0,70,0.00,,,0.00,weatherlink.com 1.10,2013-10-18 20:10:00,
2013-10-18 16:25:00,86.0,75.0,29.90,WSW,252,4.0,12.0,70,0.00,,,0.00,weatherlink.com 1.10,2013-10-18 20:25:00,
2013-10-18 16:40:00,86.0,76.0,29.90,West,265,7.0,10.0,71,0.00,,,0.00,weatherlink.com 1.10,2013-10-18 20:40:00,
2013-10-18 16:55:00,86.0,76.0,29.90,West,262,3.0,10.0,71,0.00,,,0.00,weatherlink.com 1.10,2013-10-18 20:55:00,
2013-10-18 17:10:00,86.0,76.0,29.90,WSW,241,5.0,9.0,71,0.00,,,0.00,weatherlink.com 1.10,2013-10-18 21:10:00,
2013-10-18 17:25:00,86.2,75.0,29.90,West,262,3.0,10.0,70,0.00,,,0.00,weatherlink.com 1.10,2013-10-18 21:25:00,
2013-10-18 17:40:00,85.9,76.0,29.90,WSW,255,7.0,8.0,71,0.00,,,0.00,weatherlink.com 1.10,2013-10-18 21:40:00,
2013-10-18 17:55:00,85.6,75.0,29.90,West,259,5.0,9.0,71,0.00,,,0.00,weatherlink.com 1.10,2013-10-18 21:55:00,
2013-10-18 18:10:00,85.2,75.0,29.91,WSW,245,4.0,9.0,71,0.00,,,0.00,weatherlink.com 1.10,2013-10-18 22:10:00,
2013-10-18 18:25:00,84.9,75.0,29.91,West,278,2.0,9.0,72,0.00,,,0.00,weatherlink.com 1.10,2013-10-18 22:25:00,
2013-10-18 18:40:00,84.5,75.0,29.91,West,269,5.0,7.0,73,0.00,,,0.00,weatherlink.com 1.10,2013-10-18 22:40:00,
2013-10-18 18:55:00,83.8,75.0,29.91,West,269,5.0,7.0,74,0.00,,,0.00,weatherlink.com 1.10,2013-10-18 22:55:00,
2013-10-18 19:10:00,83.1,74.0,29.91,West,269,2.0,5.0,75,0.00,,,0.00,weatherlink.com 1.10,2013-10-18 23:10:00,
2013-10-18 19:25:00,82.6,74.0,29.91,West,269,1.0,5.0,76,0.00,,,0.00,weatherlink.com 1.10,2013-10-18 23:25:00,
2013-10-18 19:40:00,82.2,74.0,29.92,West,269,2.0,5.0,77,0.00,,,0.00,weatherlink.com 1.10,2013-10-18 23:40:00,
2013-10-18 19:55:00,81.9,74.0,29.92,West,269,1.0,5.0,78,0.00,,,0.00,weatherlink.com 1.10,2013-10-18 23:55:00,
2013-10-18 20:10:00,81.8,74.0,29.93,West,269,0.0,5.0,78,0.00,,,0.00,weatherlink.com 1.10,2013-10-19 00:10:00,
2013-10-18 20:25:00,81.8,75.0,29.93,West,269,2.0,3.0,79,0.00,,,0.00,weatherlink.com 1.10,2013-10-19 00:25:00,
2013-10-18 20:40:00,81.6,75.0,29.93,West,269,0.0,6.0,79,0.00,,,0.00,weatherlink.com 1.10,2013-10-19 00:40:00,
2013-10-18 20:55:00,81.6,75.0,29.93,West,269,0.0,2.0,80,0.00,,,0.00,weatherlink.com 1.10,2013-10-19 00:55:00,
2013-10-18 21:10:00,81.9,75.0,29.93,West,269,0.0,1.0,79,0.00,,,0.00,weatherlink.com 1.10,2013-10-19 01:10:00,
2013-10-18 21:25:00,81.5,74.0,29.94,West,269,0.0,0.0,79,0.00,,,0.00,weatherlink.com 1.10,2013-10-19 01:25:00,
2013-10-18 21:40:00,81.1,74.0,29.95,West,269,0.0,1.0,80,0.00,,,0.00,weatherlink.com 1.10,2013-10-19 01:40:00,
2013-10-18 21:55:00,80.6,74.0,29.95,West,269,0.0,0.0,80,0.00,,,0.00,weatherlink.com 1.10,2013-10-19 01:55:00,
2013-10-18 22:10:00,80.3,74.0,29.95,West,269,0.0,2.0,81,0.00,,,0.00,weatherlink.com 1.10,2013-10-19 02:10:00,
2013-10-18 22:25:00,80.2,74.0,29.96,West,269,0.0,3.0,82,0.00,,,0.00,weatherlink.com 1.10,2013-10-19 02:25:00,
2013-10-18 22:40:00,80.3,74.0,29.96,West,269,0.0,3.0,82,0.00,,,0.00,weatherlink.com 1.10,2013-10-19 02:40:00,
2013-10-18 22:55:00,80.4,75.0,29.96,ENE,64,1.0,5.0,83,0.00,,,0.00,weatherlink.com 1.10,2013-10-19 02:55:00,
2013-10-18 23:10:00,80.1,75.0,29.96,ENE,64,2.0,6.0,83,0.00,,,0.00,weatherlink.com 1.10,2013-10-19 03:10:00,
2013-10-18 23:25:00,79.8,74.0,29.96,ENE,64,3.0,4.0,83,0.00,,,0.00,weatherlink.com 1.10,2013-10-19 03:25:00,
2013-10-18 23:40:00,79.4,74.0,29.96,ENE,64,2.0,4.0,83,0.00,,,0.00,weatherlink.com 1.10,2013-10-19 03:40:00,
2013-10-18 23:55:00,79.2,74.0,29.96,ENE,64,2.0,3.0,84,0.00,,,0.00,weatherlink.com 1.10,2013-10-19 03:55:00,